Terminal Aerodrome Forecast
Issued by NWS Charleston, WV

Current Version | Previous Version | Graphics & Text | Print | Product List | Glossary On
Versions: 1 2 3 4 5 6 7 8 9 10 11 12 13 14 15 16 17 18 19 20 21 22 23 24
000
FTUS41 KRLX 150541
TAFCRW
TAF
KCRW 150541Z 1506/1606 18004KT P6SM SKC
     FM151400 22008KT P6SM FEW120
     FM151600 23012G18KT P6SM SCT200
     FM151900 23011G17KT P6SM BKN025
     FM152200 25010KT 6SM SHRA BR BKN025
     FM160000 28009KT 4SM SHRA BR OVC015
     FM160200 30007KT P6SM BKN025
     FM160500 30004KT 5SM BR BKN025=

USA.gov is the U.S. government's official web portal to all federal, state and local government web resources and services.